PWSweather.com
Personal Weather Stations
Station Observations
DW0826
Near, Fish Camp, CA 93623

NearFish Camp, CA 93623

Lat: 37.454233, Lon: -119.64568

Elevation: 4960

Station Type: Davis VantagePro2

Latest ConditionsUpdated 2:01:06 PM PDT Friday, Oct 18, 2019
Currently Today's Max Today's Min Today's Average
Temperature 54.7°F12.6°C 55.4°F13.0°C 42.2°F5.7°C 48.4°F9.1°C
Dew Point 40.2°F4.6°C 40.4°F4.7°C 23.3°F-4.8°C 32.9°F0.5°C
Winds 8.0 mph SE12.9 kmh SE 8.0 mph -12.9 kmh - - 3.5 mph 5.6 kmh
Wind Gusts 16.0 mph25.7 kmh 16.0 mph25.7 kmh - -
Humidity 58% 72% 39% 55%
Pressure 30.19 in1022.4 mb 30.21 in1023.0 mb 30.04 in1017.3 mb -
Hour Temp Dew Point Humidity Winds Wind Gusts Pressure Precip Precip Rate Daily Precip Total
02:01 PM 54.7°F12.6°C 40.2°F4.6°C 58% 8.0 mph SE12.9 kmh SE 16.0 mph25.7 kmh 30.19 in1022.4 mb 0.00 in0.0 mm 0.00 in0.0 mm 0.00 in0.0 mm
01:30 PM 55.3°F12.9°C 39.8°F4.3°C 56% 2.0 mph SE3.2 kmh SE 13.0 mph20.9 kmh 30.19 in1022.4 mb 0.00 in0.0 mm 0.00 in0.0 mm 0.00 in0.0 mm
01:00 PM 53.9°F12.2°C 39.4°F4.1°C 58% 5.0 mph SE8.0 kmh SE 13.0 mph20.9 kmh 30.20 in1022.7 mb 0.00 in0.0 mm 0.00 in0.0 mm 0.00 in0.0 mm
12:30 PM 55.4°F13.0°C 40.4°F4.7°C 57% 2.0 mph SE3.2 kmh SE 12.0 mph19.3 kmh 30.20 in1022.7 mb 0.00 in0.0 mm 0.00 in0.0 mm 0.00 in0.0 mm
12:00 PM 53.4°F11.9°C 39.4°F4.1°C 59% 5.0 mph SE8.0 kmh SE 12.0 mph19.3 kmh 30.21 in1023.0 mb 0.00 in0.0 mm 0.00 in0.0 mm 0.00 in0.0 mm
11:31 AM 53.3°F11.8°C 39.7°F4.3°C 60% 4.0 mph SE6.4 kmh SE 14.0 mph22.5 kmh 30.21 in1023.0 mb 0.00 in0.0 mm 0.00 in0.0 mm 0.00 in0.0 mm
11:00 AM 52.8°F11.6°C 38.8°F3.8°C 59% 6.0 mph ESE9.7 kmh ESE 13.0 mph20.9 kmh 30.21 in1023.0 mb 0.00 in0.0 mm 0.00 in0.0 mm 0.00 in0.0 mm
10:30 AM 52.4°F11.3°C 38.4°F3.6°C 59% 6.0 mph E9.7 kmh E 12.0 mph19.3 kmh 30.20 in1022.7 mb 0.00 in0.0 mm 0.00 in0.0 mm 0.00 in0.0 mm
10:00 AM 52.4°F11.3°C 36.2°F2.3°C 54% 4.0 mph ESE6.4 kmh ESE 7.0 mph11.3 kmh 30.20 in1022.7 mb 0.00 in0.0 mm 0.00 in0.0 mm 0.00 in0.0 mm
09:30 AM 49.5°F9.7°C 30.6°F-0.8°C 48% 3.0 mph E4.8 kmh E 4.0 mph6.4 kmh 30.19 in1022.4 mb 0.00 in0.0 mm 0.00 in0.0 mm 0.00 in0.0 mm
09:00 AM 47.0°F8.3°C 28.3°F-2.1°C 48% 1.0 mph E1.6 kmh E 4.0 mph6.4 kmh 30.18 in1022.0 mb 0.00 in0.0 mm 0.00 in0.0 mm 0.00 in0.0 mm
08:30 AM 47.0°F8.3°C 23.3°F-4.8°C 39% Calm Calm 9.0 mph14.5 kmh 30.16 in1021.3 mb 0.00 in0.0 mm 0.00 in0.0 mm 0.00 in0.0 mm
08:00 AM 45.0°F7.2°C 24.9°F-3.9°C 45% 5.0 mph NNW8.0 kmh NNW 9.0 mph14.5 kmh 30.14 in1020.7 mb 0.00 in0.0 mm 0.00 in0.0 mm 0.00 in0.0 mm
07:30 AM 42.6°F5.9°C 30.1°F-1.1°C 61% Calm Calm 8.0 mph12.9 kmh 30.14 in1020.7 mb 0.00 in0.0 mm 0.00 in0.0 mm 0.00 in0.0 mm
06:39 AM 45.0°F7.2°C 36.5°F2.5°C 72% 1.0 mph W1.6 kmh W 4.0 mph6.4 kmh 30.13 in1020.3 mb 0.00 in0.0 mm 0.00 in0.0 mm 0.00 in0.0 mm
04:30 AM 43.9°F6.6°C 30.5°F-0.8°C 59% 2.0 mph SW3.2 kmh SW 4.0 mph6.4 kmh 30.10 in1019.3 mb 0.00 in0.0 mm 0.00 in0.0 mm 0.00 in0.0 mm
03:30 AM 46.9°F8.3°C 27.2°F-2.7°C 46% 2.0 mph W3.2 kmh W 6.0 mph9.7 kmh 30.09 in1019.0 mb 0.00 in0.0 mm 0.00 in0.0 mm 0.00 in0.0 mm
03:00 AM 45.7°F7.6°C 27.6°F-2.4°C 49% 4.0 mph W6.4 kmh W 7.0 mph11.3 kmh 30.08 in1018.6 mb 0.00 in0.0 mm 0.00 in0.0 mm 0.00 in0.0 mm
02:30 AM 44.1°F6.7°C 28.0°F-2.2°C 53% 4.0 mph NW6.4 kmh NW 5.0 mph8.0 kmh 30.08 in1018.6 mb 0.00 in0.0 mm 0.00 in0.0 mm 0.00 in0.0 mm
02:00 AM 42.2°F5.7°C 27.2°F-2.7°C 55% 2.0 mph N3.2 kmh N 6.0 mph9.7 kmh 30.07 in1018.3 mb 0.00 in0.0 mm 0.00 in0.0 mm 0.00 in0.0 mm
01:30 AM 44.4°F6.9°C 29.2°F-1.6°C 55% 4.0 mph NNW6.4 kmh NNW 11.0 mph17.7 kmh 30.07 in1018.3 mb 0.00 in0.0 mm 0.00 in0.0 mm 0.00 in0.0 mm
01:00 AM 44.8°F7.1°C 29.6°F-1.3°C 55% 6.0 mph NW9.7 kmh NW 9.0 mph14.5 kmh 30.07 in1018.3 mb 0.00 in0.0 mm 0.00 in0.0 mm 0.00 in0.0 mm
12:30 AM 45.4°F7.4°C 31.4°F-0.3°C 58% 4.0 mph NW6.4 kmh NW 10.0 mph16.1 kmh 30.05 in1017.6 mb 0.00 in0.0 mm 0.00 in0.0 mm 0.00 in0.0 mm
12:00 AM 44.7°F7.1°C 32.4°F0.2°C 62% 4.0 mph NW6.4 kmh NW 9.0 mph14.5 kmh 30.04 in1017.3 mb 0.00 in0.0 mm 0.00 in0.0 mm 0.00 in0.0 mm